Impacts TAF Board INFO
FOR SITUATIONAL AWARENESS. NOT TO BE USED FOR FLIGHT PLANNING PURPOSES.
IDs:

KPHL - Philadelphia Intl, PA, US

Issued at 1430 UTC 18 Jan 2018
Updated at 1516 UTC 18 Jan 2018
Potential Impact None Slight Moderate High
Time1454Z 18/16Z 18/17Z 18/18Z 18/19Z 18/20Z 18/21Z 18/22Z 18/23Z 19/00Z 19/01Z 19/02Z 19/03Z 19/04Z>>
Type OBS PRVL PRVL PRVL PRVL PRVL PRVL PRVL PRVL PRVL PRVL PRVL PRVL PRVL
VIS 10 >6 >6 >6 >6 >6 >6 >6 >6 >6 >6 >6 >6 >6
CIG -- -- -- -- -- -- -- -- -- -- -- -- -- --
Cover FEW SKC SKC SKC SKC SKC SKC SKC SKC SKC SKC SKC SKC SKC
FltCat VFR VFR VFR VFR VFR VFR VFR VFR VFR VFR VFR VFR VFR VFR
WX -- -- -- -- -- -- -- -- -- -- -- -- -- --
WDir 290 300 300 300 300 300 300 300 290 290 290 290 290 290
WSpd 10 12 12 12 12 12 12 12 8 8 8 8 8 8
WGst -- 19 19 19 19 19 19 19 -- -- -- -- -- --

Raw TAF
KPHL 181430Z 1815/1918 30007KT P6SM FEW150
  FM181600 30012G19KT P6SM SKC
  FM182300 29008KT P6SM SKC
  FM191500 27008KT P6SM SKC


Raw METAR
KPHL 181454Z 29010KT 10SM FEW250 M04/M15 A3014 RMK AO2 SLP205 T10391150 55006
KPHL 181354Z 31008KT 10SM FEW120 FEW250 M05/M15 A3013 RMK AO2 SLP203 T10501150
KPHL 181254Z 28007KT 10SM FEW120 FEW250 M07/M14 A3013 RMK AO2 SLP202 T10721144

METAR Board
Radar Display
Forecast Discussion

FOR SITUATIONAL AWARENESS. NOT TO BE USED FOR FLIGHT PLANNING PURPOSES.